Aviation Discussion

.AVIATION...ISSUED 125 PM EDT WED MAR 18 2015 VFR CONDITIONS WILL HOLD THROUGH THE TAF PERIOD WITH SCT-BKN DECK OF MID/HIGH CLOUDS. DIURNAL MIXING HAS ALLOWED NORTHWESTERLY WINDS TO GUST TO AROUND 25 KT...HIGHEST PTK NORTH. EXPECT THESE GUSTS TO CONTINUE THIS AFTERNOON BEFORE HIGH PRESSURE AND DECREASED MIXING ALLOW FOR A QUICK DECREASE IN WINDS THIS EVENING. NORTHEASTERLY FETCH OFF LAKE HURON LATE TONIGHT WILL ADD SOME MOISTURE TO THE LOW LEVELS BUT UNLIKELY TO RESULT IN ANY APPRECIABLE STRATUS FORMATION GIVEN DRY AIRMASS. FOR DTW...NW WIND GUSTS TO 20-25 KT WILL CONTINUE THIS AFTERNOON...BRIEFLY APPROACHING CROSSWIND THRESHOLDS BEFORE WINDS DIMINISH AFTER 21Z. //DTW THRESHOLD PROBABILITIES... * MEDIUM IN WIND GUSTS TO 25 KT FROM 300 DEG THROUGH 21Z.

KDTW 312320Z 0100/0206 VRB04KT P6SM SCT040
FM010700 20005KT 5SM BR BKN050
FM011200 36004KT P6SM SCT035
FM012000 15006KT P6SM SKC=

KDET 311738Z 3118/0118 02010KT P6SM OVC010
FM312000 36010KT P6SM BKN045
FM312200 33007KT P6SM SCT050
FM010500 24005KT 2SM BR BKN050
FM011200 36004KT P6SM SCT035=

Cleveland Center Weather Service Unit (CWSU)
Mission:
Our main responsibility is to provide up to the minute weather information to FAA Supervisors and the ZOB Traffic Management Unit (TMU). Some of the products issued by the CWSU are the Center Weather Advisories (CWA) and the Meteorological Impact Statement (MIS). The CWA is an aviation weather warning for thunderstorms, severe icing or turbulence, and low IFR ceilings and visibility. The MIS is a 2-12 hour forecast for weather conditions, which are expected to impact ARTCC operations.
 
Operations:
The Cleveland Center Weather Service Unit (ZOB CWSU) is located at the Federal Aviation Administration (FAA) Air Route Traffic Control Center (ARTCC) in Oberlin, OH. Four National Weather Service meteorologists staff the office. Our hours of operation are from 6:00 A.M. to 9:30 P.M. daily.

Web Site Owner:
NOAA National Weather Service
Cleveland ARTCC Attn:CWSU
326 East Lorain Street
Oberlin, OH 44074
Web Administrator:Webmaster
Page last modified: 23 Feb 2013
Disclaimer
Credits
Glossary
Privacy Policy
About Our Organization
Career Opportunities